Ware Neck, Virginia
Current Conditions -  °F | °C
As of 6:15 AM on Thursday 18 Dec 2014 (Local Time) from KW75 Reporting Station
Clear Clear  
Wind Chill: 30°   Ceiling: Unl
Heat Index: 36°   Visibility: 10mi
Dew Point: 25°   Wind: 7mph
Humidity: 65%   Direction: 320°NW
Pressure: 30.13"   Gusts: NA
Location:  37.4°N, 76.46°W
Report Text: KW75 181115Z AUTO 32006KT 10SM CLR 02/M04 A3013 RMK AO1 T00201040
Loading
Personal Weather Stations






























Interactive Weather Map New forecast layout! Learn more

10-Day Weather Forecast

Advertisements
Track Severe Weather on mobile